createdAt,value
2023-05-16T00:00:53.303Z,1.17
2023-05-16T00:06:07.139Z,0.60
2023-05-16T00:08:36.671Z,1.08
2023-05-16T00:11:10.768Z,0.70
2023-05-16T00:13:42.366Z,0.93
2023-05-16T00:16:13.161Z,0.57
2023-05-16T00:18:45.827Z,1.15
2023-05-16T00:21:17.485Z,0.60
2023-05-16T00:23:44.268Z,0.40
2023-05-16T00:26:10.705Z,0.57
2023-05-16T00:28:41.180Z,0.60
2023-05-16T00:31:07.586Z,1.25
2023-05-16T00:33:34.172Z,0.90
2023-05-16T00:36:06.305Z,0.50
2023-05-16T00:38:32.663Z,0.50
2023-05-16T00:40:59.047Z,0.73
2023-05-16T00:43:27.839Z,0.93
2023-05-16T00:45:57.936Z,0.60
2023-05-16T00:48:33.136Z,1.05
2023-05-16T00:51:00.725Z,0.77
2023-05-16T00:53:27.275Z,0.47
2023-05-16T00:56:06.176Z,0.70
2023-05-16T01:01:19.006Z,0.70
2023-05-16T01:03:49.477Z,1.08
2023-05-16T01:06:17.247Z,0.90
2023-05-16T01:08:49.568Z,0.50
2023-05-16T01:11:34.600Z,0.95
2023-05-16T01:14:42.519Z,0.90
2023-05-16T01:17:29.636Z,0.60
2023-05-16T01:20:09.028Z,0.73
2023-05-16T01:22:52.068Z,0.55
2023-05-16T01:25:54.498Z,0.90
2023-05-16T01:28:21.272Z,0.55
2023-05-16T01:30:47.645Z,0.60
2023-05-16T01:33:17.650Z,0.80
2023-05-16T01:36:17.003Z,0.60
2023-05-16T01:39:01.219Z,0.80
2023-05-16T01:42:03.593Z,0.40
2023-05-16T01:44:32.863Z,0.80
2023-05-16T01:47:02.878Z,0.60
2023-05-16T01:49:42.488Z,0.52
2023-05-16T01:52:16.169Z,1.13
2023-05-16T01:54:48.720Z,0.70
2023-05-16T01:57:18.348Z,0.45
2023-05-16T01:59:51.272Z,0.63
2023-05-16T02:02:20.878Z,0.60
2023-05-16T02:04:47.567Z,0.75
2023-05-16T02:07:16.320Z,0.55
2023-05-16T02:09:45.518Z,0.70
2023-05-16T02:12:11.907Z,0.70
2023-05-16T02:14:47.406Z,0.52
2023-05-16T02:17:13.797Z,0.80
2023-05-16T02:19:40.209Z,0.60
2023-05-16T02:22:06.578Z,0.50
2023-05-16T02:24:32.984Z,0.70
2023-05-16T02:26:59.887Z,0.60
2023-05-16T02:29:35.090Z,0.75
2023-05-16T02:32:01.529Z,0.43
2023-05-16T02:34:40.291Z,0.93
2023-05-16T02:37:10.201Z,1.23
2023-05-16T02:39:41.390Z,1.00
2023-05-16T02:42:08.102Z,0.40
2023-05-16T02:44:34.497Z,0.38
2023-05-16T02:47:01.428Z,0.85
2023-05-16T02:49:32.266Z,0.50
2023-05-16T02:52:01.189Z,0.57
2023-05-16T02:54:30.451Z,0.52
2023-05-16T02:56:56.948Z,0.70
2023-05-16T02:59:27.721Z,0.52
2023-05-16T03:01:54.150Z,0.83
2023-05-16T03:04:20.554Z,0.60
2023-05-16T03:06:52.340Z,0.80
2023-05-16T03:09:19.414Z,1.35
2023-05-16T03:11:48.944Z,0.45
2023-05-16T03:14:21.385Z,0.60
2023-05-16T03:16:48.209Z,0.40
2023-05-16T03:22:00.911Z,0.40
2023-05-16T03:24:27.413Z,0.50
2023-05-16T03:26:53.972Z,0.77
2023-05-16T03:29:30.300Z,0.55
2023-05-16T03:31:56.980Z,0.45
2023-05-16T03:34:26.511Z,0.50
2023-05-16T03:36:56.114Z,0.65
2023-05-16T03:39:30.136Z,0.63
2023-05-16T03:41:57.159Z,0.38
2023-05-16T03:44:23.625Z,0.60
2023-05-16T03:46:54.144Z,0.68
2023-05-16T03:49:36.059Z,0.50
2023-05-16T03:52:03.838Z,0.70
2023-05-16T03:54:37.771Z,0.80
2023-05-16T03:57:07.312Z,0.70
2023-05-16T03:59:34.546Z,0.65
2023-05-16T04:02:08.403Z,0.55
2023-05-16T04:04:34.769Z,0.70
2023-05-16T04:07:04.986Z,0.68
2023-05-16T04:09:34.150Z,0.63
2023-05-16T04:12:02.286Z,0.65
2023-05-16T04:14:34.159Z,0.52
2023-05-16T04:17:00.633Z,0.47
2023-05-16T04:19:27.092Z,0.85
2023-05-16T04:21:59.940Z,0.77
2023-05-16T04:24:28.815Z,0.60
2023-05-16T04:26:58.292Z,0.80
2023-05-16T04:29:29.386Z,0.57
2023-05-16T04:32:05.827Z,0.50
2023-05-16T04:34:33.979Z,0.47
2023-05-16T04:37:09.659Z,1.95
2023-05-16T04:39:44.048Z,0.55
2023-05-16T04:42:13.280Z,0.60
2023-05-16T04:44:39.676Z,0.75
2023-05-16T04:47:07.981Z,0.77
2023-05-16T04:49:37.180Z,0.68
2023-05-16T04:52:06.742Z,1.25
2023-05-16T04:54:33.152Z,0.60
2023-05-16T04:56:59.568Z,0.60
2023-05-16T04:59:26.201Z,1.05
2023-05-16T05:02:01.589Z,1.08
2023-05-16T05:04:28.072Z,0.57
2023-05-16T05:07:20.728Z,0.60
2023-05-16T05:09:47.424Z,0.55
2023-05-16T05:12:13.784Z,0.45
2023-05-16T05:14:52.876Z,0.85
2023-05-16T05:17:23.527Z,0.70
2023-05-16T05:19:53.487Z,0.63
2023-05-16T05:22:19.827Z,0.82
2023-05-16T05:24:48.647Z,1.08
2023-05-16T05:27:18.120Z,0.73
2023-05-16T05:29:44.865Z,0.60
2023-05-16T05:32:20.326Z,0.70
2023-05-16T05:34:46.769Z,1.05
2023-05-16T05:37:26.237Z,0.73
2023-05-16T05:45:21.176Z,1.00
2023-05-16T05:47:51.007Z,1.05
2023-05-16T05:50:21.566Z,0.80
2023-05-16T05:52:50.661Z,0.80
2023-05-16T05:55:17.105Z,0.70
2023-05-16T06:00:36.333Z,0.93
2023-05-16T06:03:02.735Z,0.70
2023-05-16T06:05:39.246Z,0.85
2023-05-16T06:08:05.714Z,0.93
2023-05-16T06:10:36.570Z,0.80
2023-05-16T06:13:02.970Z,0.70
2023-05-16T06:15:29.453Z,0.85
2023-05-16T06:17:58.673Z,0.60
2023-05-16T06:20:28.453Z,0.50
2023-05-16T06:22:58.949Z,0.57
2023-05-16T06:25:25.708Z,0.40
2023-05-16T06:27:52.532Z,0.80
2023-05-16T06:30:18.981Z,0.52
2023-05-16T06:32:45.707Z,0.88
2023-05-16T06:35:14.512Z,0.30
2023-05-16T06:37:42.903Z,0.43
2023-05-16T06:40:12.900Z,0.50
2023-05-16T06:42:42.419Z,0.43
2023-05-16T06:45:11.859Z,0.50
2023-05-16T06:47:45.062Z,0.40
2023-05-16T06:50:11.585Z,0.32
2023-05-16T06:52:46.496Z,0.55
2023-05-16T06:55:13.002Z,0.40
2023-05-16T06:57:45.973Z,0.40
2023-05-16T07:00:13.676Z,0.60
2023-05-16T07:02:40.207Z,0.47
2023-05-16T07:05:16.391Z,0.40
2023-05-16T07:07:42.909Z,0.40
2023-05-16T07:10:13.782Z,0.40
2023-05-16T07:12:41.762Z,0.40
2023-05-16T07:15:11.027Z,0.38
2023-05-16T07:17:38.868Z,0.28
2023-05-16T07:20:07.219Z,0.30
2023-05-16T07:22:36.305Z,0.30
2023-05-16T07:25:03.035Z,0.30
2023-05-16T07:27:32.954Z,0.35
2023-05-16T07:29:59.435Z,0.38
2023-05-16T07:32:28.339Z,0.40
2023-05-16T07:34:54.840Z,0.40
2023-05-16T07:37:21.283Z,0.30
2023-05-16T07:39:51.201Z,0.50
2023-05-16T07:42:20.479Z,0.30
2023-05-16T07:44:47.021Z,0.45
2023-05-16T07:47:16.697Z,0.30
2023-05-16T07:49:46.145Z,0.40
2023-05-16T07:52:12.513Z,0.40
2023-05-16T07:54:40.294Z,0.32
2023-05-16T07:57:09.589Z,0.57
2023-05-16T07:59:36.214Z,0.60
2023-05-16T08:02:16.533Z,0.83
2023-05-16T08:04:45.409Z,0.68
2023-05-16T08:07:16.236Z,0.30
2023-05-16T08:09:42.753Z,0.25
2023-05-16T08:12:13.732Z,0.50
2023-05-16T08:14:43.318Z,0.47
2023-05-16T08:17:12.332Z,0.30
2023-05-16T08:19:39.331Z,0.22
2023-05-16T08:22:07.538Z,0.35
2023-05-16T08:24:36.577Z,0.40
2023-05-16T08:27:03.272Z,0.30
2023-05-16T08:29:32.924Z,0.50
2023-05-16T08:31:59.711Z,0.73
2023-05-16T08:34:29.553Z,0.30
2023-05-16T08:36:56.251Z,0.40
2023-05-16T08:39:22.652Z,0.50
2023-05-16T08:41:54.588Z,0.38
2023-05-16T08:44:23.790Z,0.50
2023-05-16T08:47:05.542Z,0.38
2023-05-16T08:49:38.993Z,0.60
2023-05-16T08:52:08.721Z,0.87
2023-05-16T08:54:36.533Z,0.30
2023-05-16T08:57:03.872Z,0.50
2023-05-16T08:59:30.830Z,0.30
2023-05-16T09:01:57.549Z,0.25
2023-05-16T09:04:32.772Z,0.50
2023-05-16T09:06:59.428Z,0.40
2023-05-16T09:09:30.789Z,0.40
2023-05-16T09:12:00.112Z,0.30
2023-05-16T09:14:26.776Z,0.50
2023-05-16T09:17:06.382Z,0.40
2023-05-16T09:19:44.441Z,0.30
2023-05-16T09:25:02.609Z,0.47
2023-05-16T09:27:33.413Z,0.28
2023-05-16T09:30:08.894Z,0.40
2023-05-16T09:32:35.311Z,0.40
2023-05-16T09:35:01.720Z,0.30
2023-05-16T09:37:37.767Z,0.30
2023-05-16T09:40:10.048Z,0.30
2023-05-16T09:42:39.625Z,0.30
2023-05-16T09:45:09.652Z,0.50
2023-05-16T09:47:36.133Z,0.40
2023-05-16T09:50:02.731Z,0.30
2023-05-16T09:52:29.927Z,0.22
2023-05-16T09:55:05.680Z,0.40
2023-05-16T09:57:32.803Z,0.50
2023-05-16T10:00:09.071Z,0.40
2023-05-16T10:02:37.521Z,0.28
2023-05-16T10:05:07.890Z,0.43
2023-05-16T10:07:35.171Z,0.30
2023-05-16T10:10:11.214Z,0.20
2023-05-16T10:12:38.750Z,0.30
2023-05-16T10:15:14.400Z,0.50
2023-05-16T10:17:45.569Z,0.30
2023-05-16T10:20:16.790Z,0.47
2023-05-16T10:22:47.645Z,0.40
2023-05-16T10:25:31.758Z,0.30
2023-05-16T10:28:01.173Z,0.22
2023-05-16T10:30:33.297Z,0.65
2023-05-16T10:33:12.322Z,0.53
2023-05-16T10:35:39.202Z,0.50
2023-05-16T10:38:09.638Z,0.65
2023-05-16T10:40:38.289Z,0.40
2023-05-16T10:45:55.092Z,0.40
2023-05-16T10:48:30.978Z,0.40
2023-05-16T10:51:04.363Z,0.60
2023-05-16T10:53:37.164Z,0.40
2023-05-16T10:56:09.091Z,0.40
2023-05-16T10:58:43.258Z,0.50
2023-05-16T11:01:18.618Z,0.30
2023-05-16T11:03:57.189Z,0.70
2023-05-16T11:06:33.256Z,0.30
2023-05-16T11:09:19.789Z,0.40
2023-05-16T11:11:59.807Z,0.30
2023-05-16T11:14:53.877Z,0.30
2023-05-16T11:17:24.260Z,0.40
2023-05-16T11:20:04.036Z,0.50
2023-05-16T11:22:48.203Z,0.30
2023-05-16T11:25:43.915Z,0.30
2023-05-16T11:28:12.030Z,0.30
2023-05-16T11:31:17.188Z,0.40
2023-05-16T11:33:44.993Z,0.40
2023-05-16T11:36:16.450Z,0.38
2023-05-16T11:38:44.365Z,0.33
2023-05-16T11:41:15.557Z,0.40
2023-05-16T11:44:11.205Z,0.40
2023-05-16T11:46:40.930Z,0.45
2023-05-16T11:49:09.605Z,0.40
2023-05-16T11:51:46.292Z,0.47
2023-05-16T11:54:22.836Z,0.30
2023-05-16T11:56:58.313Z,0.40
2023-05-16T11:59:24.779Z,0.47
2023-05-16T12:01:51.250Z,0.30
2023-05-16T12:04:20.914Z,0.30
2023-05-16T12:07:02.863Z,0.45
2023-05-16T12:09:32.064Z,0.70
2023-05-16T12:12:00.083Z,0.77
2023-05-16T12:14:37.197Z,0.45
2023-05-16T12:17:06.477Z,0.37
2023-05-16T12:19:36.654Z,0.38
2023-05-16T12:22:05.178Z,0.57
2023-05-16T12:24:41.742Z,0.40
2023-05-16T12:29:55.763Z,0.50
2023-05-16T12:32:24.972Z,0.40
2023-05-16T12:37:39.407Z,0.68
2023-05-16T12:40:11.126Z,0.43
2023-05-16T12:42:51.826Z,0.40
2023-05-16T12:45:20.942Z,0.40
2023-05-16T12:47:49.967Z,0.30
2023-05-16T12:50:27.413Z,0.43
2023-05-16T12:53:00.012Z,0.60
2023-05-16T12:55:32.173Z,0.47
2023-05-16T12:58:03.061Z,0.30
2023-05-16T13:00:33.674Z,0.57
2023-05-16T13:03:04.725Z,0.30
2023-05-16T13:05:57.123Z,0.50
2023-05-16T13:08:30.198Z,0.40
2023-05-16T13:11:00.486Z,0.70
2023-05-16T13:16:04.261Z,0.50
2023-05-16T13:18:34.563Z,0.55
2023-05-16T13:21:03.816Z,0.40
2023-05-16T13:23:38.226Z,0.40
2023-05-16T13:28:49.910Z,0.30
2023-05-16T13:31:20.504Z,0.63
2023-05-16T13:33:47.553Z,0.40
2023-05-16T13:36:15.458Z,0.52
2023-05-16T13:38:44.696Z,0.40
2023-05-16T13:41:11.115Z,0.45
2023-05-16T13:43:37.883Z,0.40
2023-05-16T13:46:06.725Z,0.40
2023-05-16T13:48:33.169Z,0.40
2023-05-16T13:51:00.213Z,0.45
2023-05-16T13:53:32.675Z,0.47
2023-05-16T13:55:59.070Z,0.38
2023-05-16T13:58:27.956Z,0.30
2023-05-16T14:00:57.510Z,0.70
2023-05-16T14:03:32.583Z,0.40
2023-05-16T14:05:59.106Z,0.38
2023-05-16T14:08:25.627Z,0.30
2023-05-16T14:10:56.680Z,0.30
2023-05-16T14:13:23.053Z,0.30
2023-05-16T14:15:49.533Z,0.52
2023-05-16T14:18:24.850Z,0.60
2023-05-16T14:20:51.552Z,0.40
2023-05-16T14:23:21.152Z,0.60
2023-05-16T14:25:51.282Z,0.35
2023-05-16T14:28:20.305Z,0.40
2023-05-16T14:30:51.873Z,0.20
2023-05-16T14:33:18.430Z,0.43
2023-05-16T14:35:50.586Z,1.07
2023-05-16T14:38:17.001Z,0.65
2023-05-16T14:40:45.546Z,0.55
2023-05-16T14:43:15.184Z,0.47
2023-05-16T14:45:41.676Z,0.40
2023-05-16T14:48:08.662Z,0.37
2023-05-16T14:50:44.493Z,0.30
2023-05-16T14:53:10.950Z,0.20
2023-05-16T14:55:37.845Z,0.20
2023-05-16T14:58:08.615Z,0.32
2023-05-16T15:00:35.182Z,0.40
2023-05-16T15:03:06.289Z,0.28
2023-05-16T15:05:33.045Z,0.30
2023-05-16T15:08:00.271Z,0.25
2023-05-16T15:10:35.877Z,0.35
2023-05-16T15:13:02.409Z,0.40
2023-05-16T15:15:38.913Z,0.30
2023-05-16T15:18:05.579Z,0.43
2023-05-16T15:20:41.335Z,0.40
2023-05-16T15:23:07.786Z,0.20
2023-05-16T15:25:38.357Z,0.53
2023-05-16T15:28:07.677Z,0.30
2023-05-16T15:30:37.241Z,0.30
2023-05-16T15:33:03.775Z,0.20
2023-05-16T15:35:34.442Z,0.30
2023-05-16T15:38:03.846Z,0.30
2023-05-16T15:40:33.130Z,0.20
2023-05-16T15:42:59.575Z,0.50
2023-05-16T15:45:30.953Z,0.20
2023-05-16T15:48:02.940Z,0.30
2023-05-16T15:50:38.486Z,0.30
2023-05-16T15:53:04.934Z,0.40
2023-05-16T15:55:35.221Z,0.43
2023-05-16T15:58:05.423Z,0.45
2023-05-16T16:00:31.829Z,0.30
2023-05-16T16:03:05.233Z,0.83
2023-05-16T16:05:31.775Z,0.57
2023-05-16T16:08:03.298Z,0.40
2023-05-16T16:10:29.910Z,0.35
2023-05-16T16:13:06.163Z,0.50
2023-05-16T16:15:33.479Z,0.73
2023-05-16T16:18:08.351Z,0.50
2023-05-16T16:20:34.926Z,0.30
2023-05-16T16:23:01.460Z,0.40
2023-05-16T16:25:30.644Z,0.30
2023-05-16T16:28:00.636Z,0.57
2023-05-16T16:30:30.698Z,0.50
2023-05-16T16:33:00.602Z,0.43
2023-05-16T16:35:27.360Z,0.40
2023-05-16T16:38:06.755Z,0.57
2023-05-16T16:40:37.432Z,1.07
2023-05-16T16:43:07.812Z,1.38
2023-05-16T16:45:34.277Z,0.63
2023-05-16T16:48:03.070Z,0.77
2023-05-16T16:50:34.354Z,0.95
2023-05-16T16:55:50.758Z,0.43
2023-05-16T16:58:20.877Z,0.70
2023-05-16T17:00:48.391Z,0.85
2023-05-16T17:03:15.184Z,0.60
2023-05-16T17:05:45.766Z,0.60
2023-05-16T17:08:17.308Z,0.57
2023-05-16T17:10:43.707Z,0.50
2023-05-16T17:13:14.762Z,0.65
2023-05-16T17:15:41.412Z,0.50
2023-05-16T17:18:07.999Z,0.60
2023-05-16T17:20:37.885Z,0.40
2023-05-16T17:23:05.450Z,0.52
2023-05-16T17:25:32.325Z,0.50
2023-05-16T17:27:58.735Z,0.40
2023-05-16T17:30:27.970Z,0.33
2023-05-16T17:32:57.516Z,0.70
2023-05-16T17:35:24.205Z,0.60
2023-05-16T17:37:53.796Z,0.90
2023-05-16T17:40:20.655Z,0.70
2023-05-16T17:42:47.208Z,0.50
2023-05-16T17:45:17.643Z,0.40
2023-05-16T17:47:44.169Z,0.40
2023-05-16T17:50:11.001Z,0.70
2023-05-16T17:52:40.400Z,0.50
2023-05-16T17:55:10.221Z,0.47
2023-05-16T17:57:40.183Z,0.60
2023-05-16T18:00:14.536Z,0.30
2023-05-16T18:02:44.460Z,1.33
2023-05-16T18:05:16.325Z,0.50
2023-05-16T18:07:51.106Z,0.40
2023-05-16T18:10:17.649Z,0.50
2023-05-16T18:12:44.205Z,0.60
2023-05-16T18:15:20.058Z,0.40
2023-05-16T18:17:46.536Z,0.40
2023-05-16T18:20:15.984Z,0.30
2023-05-16T18:22:46.260Z,0.55
2023-05-16T18:25:16.968Z,0.43
2023-05-16T18:27:45.969Z,0.65
2023-05-16T18:30:13.364Z,0.47
2023-05-16T18:32:48.645Z,0.70
2023-05-16T18:35:15.341Z,0.60
2023-05-16T18:37:47.555Z,0.85
2023-05-16T18:40:14.180Z,0.50
2023-05-16T18:42:40.751Z,0.70
2023-05-16T18:45:12.274Z,0.50
2023-05-16T18:47:38.971Z,0.50
2023-05-16T18:50:09.360Z,0.85
2023-05-16T18:52:44.335Z,0.65
2023-05-16T18:55:14.632Z,0.60
2023-05-16T18:57:47.218Z,0.70
2023-05-16T19:00:25.666Z,0.50
2023-05-16T19:02:52.212Z,0.90
2023-05-16T19:05:22.990Z,0.70
2023-05-16T19:07:49.648Z,0.75
2023-05-16T19:10:16.190Z,0.60
2023-05-16T19:12:52.579Z,0.73
2023-05-16T19:15:19.070Z,0.73
2023-05-16T19:17:53.889Z,1.10
2023-05-16T19:20:20.500Z,0.70
2023-05-16T19:22:47.946Z,0.33
2023-05-16T19:25:14.424Z,1.02
2023-05-16T19:27:40.826Z,0.63
2023-05-16T19:30:07.869Z,0.93
2023-05-16T19:32:38.244Z,0.55
2023-05-16T19:35:06.383Z,0.50
2023-05-16T19:37:41.668Z,0.70
2023-05-16T19:40:08.657Z,0.77
2023-05-16T19:42:35.150Z,0.88
2023-05-16T19:45:07.204Z,1.08
2023-05-16T19:47:37.805Z,0.47
2023-05-16T19:50:08.658Z,1.10
2023-05-16T19:52:38.020Z,0.30
2023-05-16T19:55:11.373Z,0.70
2023-05-16T19:57:40.664Z,1.10
2023-05-16T20:00:29.597Z,1.40
2023-05-16T20:02:56.556Z,0.70
2023-05-16T20:05:23.505Z,0.85
2023-05-16T20:07:50.363Z,0.80
2023-05-16T20:10:21.912Z,0.70
2023-05-16T20:12:51.339Z,0.57
2023-05-16T20:15:18.796Z,1.13
2023-05-16T20:17:45.565Z,0.80
2023-05-16T20:20:16.297Z,1.27
2023-05-16T20:22:46.148Z,1.48
2023-05-16T20:25:15.475Z,0.90
2023-05-16T20:27:44.512Z,0.93
2023-05-16T20:30:11.844Z,1.45
2023-05-16T20:32:38.311Z,1.15
2023-05-16T20:37:55.375Z,1.07
2023-05-16T20:40:22.970Z,0.90
2023-05-16T20:42:49.667Z,1.08
2023-05-16T20:45:16.462Z,0.98
2023-05-16T20:47:46.702Z,1.02
2023-05-16T20:50:13.190Z,1.10
2023-05-16T20:52:43.012Z,1.10
2023-05-16T20:55:12.550Z,0.88
2023-05-16T20:57:40.758Z,1.10
2023-05-16T21:00:16.374Z,0.90
2023-05-16T21:02:57.416Z,0.87
2023-05-16T21:05:25.850Z,1.08
2023-05-16T21:08:00.247Z,0.70
2023-05-16T21:10:29.142Z,1.40
2023-05-16T21:12:58.371Z,1.10
2023-05-16T21:15:25.259Z,1.23
2023-05-16T21:17:51.932Z,1.20
2023-05-16T21:20:18.877Z,1.15
2023-05-16T21:22:45.442Z,1.27
2023-05-16T21:25:11.854Z,1.50
2023-05-16T21:27:46.470Z,1.00
2023-05-16T21:30:13.461Z,1.42
2023-05-16T21:32:53.895Z,1.02
2023-05-16T21:35:21.999Z,0.98
2023-05-16T21:37:48.418Z,1.20
2023-05-16T21:40:18.904Z,1.23
2023-05-16T21:42:46.869Z,1.00
2023-05-16T21:45:20.036Z,1.38
2023-05-16T21:47:50.209Z,1.30
2023-05-16T21:50:21.533Z,1.10
2023-05-16T21:52:47.905Z,1.80
2023-05-16T21:55:16.217Z,1.13
2023-05-16T21:57:45.546Z,1.00
2023-05-16T22:00:12.944Z,0.95
2023-05-16T22:02:42.450Z,1.15
2023-05-16T22:05:09.497Z,1.40
2023-05-16T22:07:36.626Z,1.23
2023-05-16T22:10:12.065Z,1.25
2023-05-16T22:12:38.739Z,1.10
2023-05-16T22:15:14.112Z,1.42
2023-05-16T22:17:41.796Z,1.27
2023-05-16T22:20:11.893Z,1.40
2023-05-16T22:22:38.445Z,0.93
2023-05-16T22:25:05.287Z,1.52
2023-05-16T22:27:35.436Z,1.35
2023-05-16T22:30:05.171Z,1.17
2023-05-16T22:32:37.113Z,1.27
2023-05-16T22:35:04.941Z,1.45
2023-05-16T22:37:31.362Z,1.35
2023-05-16T22:40:03.018Z,0.90
2023-05-16T22:42:31.204Z,1.50
2023-05-16T22:47:39.574Z,1.52
2023-05-16T22:50:16.722Z,1.75
2023-05-16T22:52:46.955Z,1.27
2023-05-16T22:55:16.152Z,1.47
2023-05-16T22:57:43.921Z,1.38
2023-05-16T23:00:22.688Z,2.08
2023-05-16T23:02:50.874Z,1.48
2023-05-16T23:05:17.682Z,1.30
2023-05-16T23:07:47.954Z,1.13
2023-05-16T23:10:17.307Z,1.08
2023-05-16T23:12:46.754Z,1.27
2023-05-16T23:15:15.404Z,1.17
2023-05-16T23:17:41.927Z,1.67
2023-05-16T23:20:11.778Z,1.70
2023-05-16T23:22:38.240Z,1.40
2023-05-16T23:25:11.468Z,1.42
2023-05-16T23:27:37.878Z,1.40
2023-05-16T23:30:15.328Z,1.40
2023-05-16T23:32:41.847Z,1.00
2023-05-16T23:35:11.725Z,1.23
2023-05-16T23:37:40.901Z,1.35
2023-05-16T23:40:09.165Z,1.40
2023-05-16T23:42:42.247Z,1.50
2023-05-16T23:45:09.246Z,1.97
2023-05-16T23:47:36.794Z,1.40
2023-05-16T23:50:07.067Z,1.58
2023-05-16T23:52:33.495Z,1.17
2023-05-16T23:55:03.357Z,1.80
2023-05-16T23:57:32.502Z,1.80
